Lewis University, IL

5:20 AM CST on February 25, 2018 (GMT -0600)
Lewis University | | Change Station
Active Advisory: Flood Warning

Elev 673 ft 41.61 °N, 88.09 °W | Updated 5 minutes ago

Overcast
Overcast
33 °F
Feels Like 20 °F
N
28
Wind Variable Wind from West
Gusts 33 mph

Today
High -- | Low -- °F
--% Chance of Precip.
Yesterday
High -- | Low -- °F
Precip. -- in
Pressure 29.77 in
Visibility 10.0 miles
Clouds Overcast 2100 ft
Windchill 20 °F
Dew Point 28 °F
Humidity 82%
Rainfall 0.03 in
Snow Depth Not available.
6:33 AM 5:38 PM
Waxing Gibbous, 74% visible
METAR KLOT 251115Z AUTO 27024G29KT 10SM OVC021 01/M02 A2977 RMK AO2 T00061021
Pressure 29.77 in
Visibility 10.0 miles
Clouds Overcast 2100 ft
Windchill 20 °F
Dew Point 28 °F
Humidity 82%
Rainfall 0.03 in
Snow Depth Not available.
6:33 AM 5:38 PM
Waxing Gibbous, 74% visible
METAR KLOT 251115Z AUTO 27024G29KT 10SM OVC021 01/M02 A2977 RMK AO2 T00061021

Get Your Daily Forecast Email!

Thanks for signing up!

Be on the lookout for a verification email in your inbox.

You'll start receiving severe weather alerts in your inbox..

×

10-Day Weather Forecast

Almanac

Astronomy

Feb. 25, 2018 Rise Set
Actual Time
Civil Twilight
Nautical Twilight
Astronomical Twilight
Moon
Length of Visible Light
Length of Day
Tomorrow will be .
, % of the Moon is Illuminated

Today's Extremes

State Highs State Lows

Community

WunderPhotos

Category 6

Welcome to Category 6. This is the collective home for Weather Underground's featured writeups by Dr. Jeff Masters (right), Bob Henson (left), Chris Burt, and other regular contributors.

Nearby

Air Quality

  Air Quality AQ Index Pollutant
Not available.

Snow Depth

Station Depth Elevation

Earthquake Activity

City Distance Mag. Time & Date
Minimum magnitude displayed is 2.5.

Coastal Water Temperatures

Place Temperature

Stations

Nearby Weather Stations

Station Location Temp. Windchill Dew Point Humidity Wind Precip. Elev Updated Type
                   

Watches & Warnings

Flood Warning
Issued: 8:01 PM CST Feb. 24, 2018 – National Weather Service

The Flood Warning continues for
the Kankakee River near Wilmington.
* Until late Tuesday night.
* At 745 PM Saturday the stage was 8.0 feet.
* Flood stage is 6.5 feet.
* Moderate flooding is occurring and will continue.
* Forecast... the river will continue to fall to below flood stage by
Tuesday evening.
* Impact... at 7.5 feet... South Island park in Wilmington partially
flooded.


Lat... Lon 4116 8806 4135 8828 4143 8827 4126 8799